createdAt,value
2023-09-14T00:02:19.996Z,90.06
2023-09-14T00:04:48.547Z,90.66
2023-09-14T00:07:15.768Z,90.35
2023-09-14T00:09:42.868Z,90.37
2023-09-14T00:12:10.039Z,90.37
2023-09-14T00:14:38.132Z,90.57
2023-09-14T00:17:05.228Z,90.73
2023-09-14T00:19:32.302Z,90.87
2023-09-14T00:21:59.713Z,90.94
2023-09-14T00:24:26.915Z,90.98
2023-09-14T00:26:54.692Z,90.67
2023-09-14T00:29:22.768Z,90.72
2023-09-14T00:31:50.007Z,89.77
2023-09-14T00:34:19.206Z,89.78
2023-09-14T00:36:46.421Z,90.77
2023-09-14T00:39:13.758Z,90.90
2023-09-14T00:41:42.612Z,91.26
2023-09-14T00:44:10.046Z,90.93
2023-09-14T00:46:37.350Z,91.36
2023-09-14T00:49:05.886Z,90.45
2023-09-14T00:51:34.068Z,90.45
2023-09-14T00:54:01.618Z,90.33
2023-09-14T00:56:29.691Z,90.09
2023-09-14T00:59:00.071Z,90.51
2023-09-14T01:01:27.511Z,90.51
2023-09-14T01:03:54.905Z,90.60
2023-09-14T01:06:22.982Z,90.83
2023-09-14T01:08:50.885Z,90.99
2023-09-14T01:11:18.100Z,90.12
2023-09-14T01:14:10.446Z,90.27
2023-09-14T01:16:51.142Z,90.57
2023-09-14T01:19:47.562Z,90.39
2023-09-14T01:22:57.642Z,90.49
2023-09-14T01:25:47.161Z,90.40
2023-09-14T01:28:16.794Z,90.48
2023-09-14T01:30:43.921Z,90.08
2023-09-14T01:33:15.764Z,90.18
2023-09-14T01:35:51.475Z,91.12
2023-09-14T01:38:19.498Z,91.34
2023-09-14T01:40:49.734Z,91.05
2023-09-14T01:43:18.527Z,89.76
2023-09-14T01:45:47.252Z,90.22
2023-09-14T01:48:20.141Z,90.35
2023-09-14T01:50:47.991Z,91.01
2023-09-14T01:53:15.336Z,90.55
2023-09-14T01:55:42.856Z,90.62
2023-09-14T01:58:10.911Z,90.65
2023-09-14T02:00:38.400Z,91.19
2023-09-14T02:03:06.369Z,90.87
2023-09-14T02:05:33.562Z,90.61
2023-09-14T02:08:01.087Z,89.70
2023-09-14T02:10:28.150Z,89.81
2023-09-14T02:12:55.416Z,90.38
2023-09-14T02:15:23.211Z,89.91
2023-09-14T02:17:51.377Z,90.19
2023-09-14T02:20:21.381Z,90.82
2023-09-14T02:22:48.855Z,90.40
2023-09-14T02:25:16.030Z,90.69
2023-09-14T02:27:43.054Z,90.72
2023-09-14T02:30:11.001Z,90.55
2023-09-14T02:32:38.035Z,90.26
2023-09-14T02:35:05.973Z,90.88
2023-09-14T02:37:33.436Z,90.79
2023-09-14T02:40:00.540Z,90.12
2023-09-14T02:42:27.641Z,91.33
2023-09-14T02:44:54.739Z,91.13
2023-09-14T02:47:21.820Z,90.50
2023-09-14T02:49:48.889Z,90.29
2023-09-14T02:52:15.988Z,90.62
2023-09-14T02:54:43.007Z,90.50
2023-09-14T02:57:10.087Z,90.29
2023-09-14T02:59:37.164Z,90.24
2023-09-14T03:02:05.085Z,91.25
2023-09-14T03:04:32.475Z,90.37
2023-09-14T03:06:59.733Z,90.90
2023-09-14T03:09:29.304Z,90.87
2023-09-14T03:11:56.879Z,91.17
2023-09-14T03:14:23.963Z,91.03
2023-09-14T03:16:51.797Z,90.42
2023-09-14T03:19:19.276Z,90.70
2023-09-14T03:21:46.377Z,91.04
2023-09-14T03:24:14.204Z,91.18
2023-09-14T03:26:41.854Z,91.18
2023-09-14T03:29:09.161Z,91.34
2023-09-14T03:31:37.820Z,91.07
2023-09-14T03:34:08.802Z,91.10
2023-09-14T03:36:37.845Z,91.06
2023-09-14T03:39:07.067Z,91.32
2023-09-14T03:41:34.191Z,90.76
2023-09-14T03:44:02.156Z,91.25
2023-09-14T03:46:30.044Z,91.16
2023-09-14T03:48:57.268Z,91.45
2023-09-14T03:51:24.302Z,91.02
2023-09-14T03:53:52.552Z,90.90
2023-09-14T03:56:20.020Z,90.90
2023-09-14T03:58:47.330Z,90.57
2023-09-14T04:01:14.995Z,90.96
2023-09-14T04:03:42.396Z,91.17
2023-09-14T04:06:09.592Z,91.28
2023-09-14T04:08:36.755Z,90.72
2023-09-14T04:11:04.332Z,90.74
2023-09-14T04:13:34.061Z,90.30
2023-09-14T04:16:05.802Z,91.31
2023-09-14T04:18:38.755Z,91.61
2023-09-14T04:21:08.114Z,91.44
2023-09-14T04:23:35.282Z,91.44
2023-09-14T04:26:03.161Z,91.33
2023-09-14T04:28:30.603Z,90.67
2023-09-14T04:31:02.900Z,91.33
2023-09-14T04:33:32.644Z,90.77
2023-09-14T04:36:04.514Z,90.84
2023-09-14T04:38:34.516Z,91.18
2023-09-14T04:41:08.131Z,91.56
2023-09-14T04:43:36.511Z,90.93
2023-09-14T04:46:06.704Z,91.02
2023-09-14T04:48:34.653Z,91.03
2023-09-14T04:51:02.064Z,91.09
2023-09-14T04:53:29.396Z,91.09
2023-09-14T04:55:56.635Z,91.03
2023-09-14T04:58:26.424Z,90.92
2023-09-14T05:00:54.816Z,91.99
2023-09-14T05:03:22.388Z,91.09
2023-09-14T05:05:55.595Z,91.43
2023-09-14T05:08:23.895Z,91.85
2023-09-14T05:10:51.770Z,91.85
2023-09-14T05:13:22.175Z,91.49
2023-09-14T05:15:49.539Z,91.59
2023-09-14T05:18:16.682Z,91.74
2023-09-14T05:20:49.346Z,91.63
2023-09-14T05:23:17.341Z,91.55
2023-09-14T05:25:46.912Z,91.51
2023-09-14T05:28:16.428Z,91.90
2023-09-14T05:30:44.822Z,91.21
2023-09-14T05:33:12.202Z,91.22
2023-09-14T05:35:39.857Z,90.55
2023-09-14T05:38:06.876Z,90.55
2023-09-14T05:40:34.519Z,90.99
2023-09-14T05:43:01.982Z,91.15
2023-09-14T05:45:29.305Z,90.11
2023-09-14T05:47:57.308Z,90.19
2023-09-14T05:50:25.049Z,90.12
2023-09-14T05:52:52.070Z,89.54
2023-09-14T05:55:19.980Z,90.36
2023-09-14T05:57:47.304Z,90.71
2023-09-14T06:00:14.896Z,90.06
2023-09-14T06:02:43.646Z,89.72
2023-09-14T06:05:23.733Z,90.12
2023-09-14T06:07:54.309Z,89.73
2023-09-14T06:10:22.209Z,89.55
2023-09-14T06:12:51.900Z,90.19
2023-09-14T06:15:19.203Z,90.47
2023-09-14T06:17:48.841Z,90.40
2023-09-14T06:20:16.874Z,89.01
2023-09-14T06:22:44.821Z,90.15
2023-09-14T06:25:12.072Z,89.68
2023-09-14T06:27:40.627Z,89.19
2023-09-14T06:30:09.626Z,90.01
2023-09-14T06:32:37.937Z,89.56
2023-09-14T06:35:06.222Z,88.66
2023-09-14T06:37:33.246Z,87.81
2023-09-14T06:40:00.484Z,90.05
2023-09-14T06:42:27.544Z,90.05
2023-09-14T06:44:54.564Z,89.26
2023-09-14T06:47:21.613Z,87.54
2023-09-14T06:49:48.613Z,88.14
2023-09-14T06:52:15.701Z,87.96
2023-09-14T06:54:45.772Z,86.73
2023-09-14T06:57:12.895Z,85.53
2023-09-14T06:59:39.932Z,86.13
2023-09-14T07:02:07.625Z,86.13
2023-09-14T07:04:36.053Z,85.97
2023-09-14T07:07:03.305Z,86.21
2023-09-14T07:09:30.536Z,88.67
2023-09-14T07:11:57.605Z,88.67
2023-09-14T07:14:24.649Z,87.20
2023-09-14T07:16:52.102Z,84.80
2023-09-14T07:19:19.458Z,84.80
2023-09-14T07:21:46.539Z,83.02
2023-09-14T07:24:14.679Z,84.83
2023-09-14T07:26:41.864Z,84.73
2023-09-14T07:29:09.131Z,83.71
2023-09-14T07:31:36.666Z,87.63
2023-09-14T07:34:03.988Z,84.71
2023-09-14T07:36:31.073Z,83.89
2023-09-14T07:38:58.192Z,84.33
2023-09-14T07:41:27.079Z,84.33
2023-09-14T07:43:54.105Z,85.37
2023-09-14T07:46:21.252Z,84.25
2023-09-14T07:48:48.418Z,82.79
2023-09-14T07:51:15.444Z,82.10
2023-09-14T07:53:42.619Z,82.16
2023-09-14T07:56:09.707Z,81.06
2023-09-14T07:58:36.729Z,81.39
2023-09-14T08:01:03.914Z,80.38
2023-09-14T08:03:31.861Z,80.38
2023-09-14T08:05:59.145Z,80.40
2023-09-14T08:08:26.163Z,82.99
2023-09-14T08:10:55.419Z,81.07
2023-09-14T08:13:23.696Z,83.92
2023-09-14T08:15:50.794Z,81.53
2023-09-14T08:18:19.783Z,81.96
2023-09-14T08:20:48.271Z,81.27
2023-09-14T08:23:19.358Z,83.09
2023-09-14T08:25:47.784Z,81.87
2023-09-14T08:28:17.962Z,82.26
2023-09-14T08:30:47.073Z,84.20
2023-09-14T08:33:16.333Z,81.90
2023-09-14T08:35:48.981Z,82.47
2023-09-14T08:38:17.109Z,83.00
2023-09-14T08:40:48.005Z,79.77
2023-09-14T08:43:15.592Z,79.97
2023-09-14T08:45:43.626Z,80.62
2023-09-14T08:48:15.099Z,77.75
2023-09-14T08:50:45.796Z,75.74
2023-09-14T08:53:15.935Z,75.74
2023-09-14T08:55:45.295Z,75.28
2023-09-14T08:58:14.562Z,74.67
2023-09-14T09:00:43.151Z,75.57
2023-09-14T09:03:10.204Z,76.13
2023-09-14T09:05:37.786Z,76.94
2023-09-14T09:08:06.358Z,75.55
2023-09-14T09:10:33.517Z,75.12
2023-09-14T09:13:04.129Z,75.23
2023-09-14T09:15:38.340Z,75.23
2023-09-14T09:18:13.774Z,72.47
2023-09-14T09:20:45.932Z,72.47
2023-09-14T09:23:17.554Z,74.99
2023-09-14T09:25:53.083Z,75.00
2023-09-14T09:28:29.173Z,77.18
2023-09-14T09:30:56.379Z,72.93
2023-09-14T09:33:39.425Z,70.30
2023-09-14T09:36:18.466Z,68.36
2023-09-14T09:38:49.580Z,69.18
2023-09-14T09:41:17.682Z,69.00
2023-09-14T09:43:46.525Z,69.00
2023-09-14T09:46:19.027Z,70.99
2023-09-14T09:48:46.637Z,70.99
2023-09-14T09:51:14.364Z,71.98
2023-09-14T09:54:08.894Z,73.57
2023-09-14T09:56:40.121Z,73.57
2023-09-14T09:59:09.979Z,74.45
2023-09-14T10:01:39.622Z,75.20
2023-09-14T10:04:11.580Z,76.59
2023-09-14T10:06:39.973Z,74.29
2023-09-14T10:09:13.312Z,72.30
2023-09-14T10:11:42.565Z,74.37
2023-09-14T10:14:15.012Z,73.35
2023-09-14T10:16:45.765Z,70.27
2023-09-14T10:19:14.081Z,69.90
2023-09-14T10:21:46.221Z,69.90
2023-09-14T10:24:15.070Z,64.61
2023-09-14T10:26:44.987Z,62.17
2023-09-14T10:29:12.308Z,65.00
2023-09-14T10:31:47.707Z,65.00
2023-09-14T10:34:18.299Z,62.80
2023-09-14T10:36:48.582Z,64.39
2023-09-14T10:39:23.898Z,64.96
2023-09-14T10:41:51.022Z,63.94
2023-09-14T10:44:18.695Z,63.94
2023-09-14T10:46:53.768Z,64.95
2023-09-14T10:49:30.967Z,67.72
2023-09-14T10:51:58.478Z,69.03
2023-09-14T10:54:32.929Z,69.03
2023-09-14T10:57:15.687Z,65.51
2023-09-14T10:59:59.526Z,64.53
2023-09-14T11:02:49.386Z,63.34
2023-09-14T11:05:25.714Z,67.75
2023-09-14T11:10:31.525Z,70.06
2023-09-14T11:13:23.383Z,69.97
2023-09-14T11:16:22.429Z,69.13
2023-09-14T11:18:51.474Z,66.69
2023-09-14T11:21:34.204Z,66.69
2023-09-14T11:24:05.181Z,65.97
2023-09-14T11:26:41.787Z,66.09
2023-09-14T11:29:12.532Z,65.50
2023-09-14T11:31:59.625Z,66.00
2023-09-14T11:34:34.217Z,64.49
2023-09-14T11:37:08.873Z,63.59
2023-09-14T11:39:44.070Z,63.59
2023-09-14T11:42:16.054Z,64.24
2023-09-14T11:44:51.680Z,65.91
2023-09-14T11:47:27.363Z,65.91
2023-09-14T11:50:01.427Z,67.26
2023-09-14T11:52:33.034Z,67.26
2023-09-14T11:55:00.117Z,66.54
2023-09-14T11:57:30.290Z,69.31
2023-09-14T11:59:57.431Z,67.51
2023-09-14T12:02:24.936Z,67.51
2023-09-14T12:04:54.953Z,66.45
2023-09-14T12:07:25.030Z,66.34
2023-09-14T12:09:52.260Z,67.36
2023-09-14T12:12:31.416Z,67.97
2023-09-14T12:15:03.435Z,65.10
2023-09-14T12:17:31.902Z,63.82
2023-09-14T12:20:01.867Z,62.37
2023-09-14T12:22:33.478Z,64.08
2023-09-14T12:25:05.510Z,63.40
2023-09-14T12:27:35.731Z,63.14
2023-09-14T12:30:07.640Z,62.92
2023-09-14T12:32:36.748Z,62.00
2023-09-14T12:35:05.869Z,61.63
2023-09-14T12:37:35.496Z,61.40
2023-09-14T12:40:12.395Z,61.72
2023-09-14T12:42:44.183Z,61.56
2023-09-14T12:45:16.887Z,62.34
2023-09-14T12:47:47.515Z,60.55
2023-09-14T12:50:18.364Z,60.55
2023-09-14T12:52:47.962Z,59.04
2023-09-14T12:55:18.408Z,61.17
2023-09-14T12:57:51.434Z,65.05
2023-09-14T13:00:26.323Z,60.02
2023-09-14T13:02:55.579Z,61.57
2023-09-14T13:05:26.172Z,60.12
2023-09-14T13:07:56.885Z,60.97
2023-09-14T13:10:30.342Z,60.97
2023-09-14T13:13:11.648Z,58.00
2023-09-14T13:15:48.395Z,57.75
2023-09-14T13:18:19.031Z,57.75
2023-09-14T13:20:53.138Z,61.15
2023-09-14T13:23:21.837Z,58.28
2023-09-14T13:25:48.975Z,58.04
2023-09-14T13:28:16.691Z,58.42
2023-09-14T13:30:43.889Z,56.40
2023-09-14T13:33:11.194Z,56.18
2023-09-14T13:35:39.966Z,53.22
2023-09-14T13:38:07.049Z,56.68
2023-09-14T13:40:34.129Z,53.96
2023-09-14T13:43:09.013Z,56.40
2023-09-14T13:45:36.942Z,54.47
2023-09-14T13:48:04.957Z,54.47
2023-09-14T13:50:32.371Z,56.73
2023-09-14T13:52:59.773Z,58.95
2023-09-14T13:55:27.027Z,57.99
2023-09-14T13:57:54.122Z,57.99
2023-09-14T14:00:21.369Z,58.00
2023-09-14T14:02:52.138Z,57.05
2023-09-14T14:05:20.073Z,57.05
2023-09-14T14:07:47.429Z,55.99
2023-09-14T14:10:15.096Z,56.64
2023-09-14T14:12:42.225Z,56.64
2023-09-14T14:15:12.844Z,56.40
2023-09-14T14:17:40.939Z,57.73
2023-09-14T14:20:10.557Z,57.80
2023-09-14T14:22:38.842Z,58.70
2023-09-14T14:25:06.848Z,59.94
2023-09-14T14:27:36.879Z,60.70
2023-09-14T14:30:04.509Z,60.50
2023-09-14T14:32:31.787Z,61.56
2023-09-14T14:34:59.182Z,59.35
2023-09-14T14:37:26.393Z,60.99
2023-09-14T14:39:53.585Z,60.09
2023-09-14T14:42:22.622Z,58.10
2023-09-14T14:44:50.448Z,59.94
2023-09-14T14:47:18.768Z,58.81
2023-09-14T14:49:46.181Z,60.12
2023-09-14T14:52:14.034Z,60.13
2023-09-14T14:54:41.155Z,58.20
2023-09-14T14:57:08.333Z,58.37
2023-09-14T14:59:36.913Z,59.55
2023-09-14T15:02:04.288Z,61.65
2023-09-14T15:04:32.083Z,59.67
2023-09-14T15:06:59.878Z,58.77
2023-09-14T15:09:27.123Z,59.41
2023-09-14T15:11:56.241Z,60.60
2023-09-14T15:14:23.335Z,60.60
2023-09-14T15:16:50.608Z,62.96
2023-09-14T15:19:19.565Z,62.96
2023-09-14T15:21:48.571Z,59.56
2023-09-14T15:24:15.729Z,62.80
2023-09-14T15:26:42.840Z,62.38
2023-09-14T15:29:09.870Z,63.73
2023-09-14T15:31:37.398Z,61.54
2023-09-14T15:34:05.537Z,62.84
2023-09-14T15:36:33.616Z,62.39
2023-09-14T15:39:00.656Z,62.51
2023-09-14T15:41:27.701Z,62.59
2023-09-14T15:43:56.814Z,62.40
2023-09-14T15:46:27.941Z,62.72
2023-09-14T15:48:55.623Z,61.84
2023-09-14T15:51:24.974Z,62.59
2023-09-14T15:53:52.126Z,63.40
2023-09-14T15:56:19.546Z,66.08
2023-09-14T15:58:53.076Z,65.24
2023-09-14T16:01:23.930Z,63.68
2023-09-14T16:03:52.225Z,64.84
2023-09-14T16:06:20.490Z,64.77
2023-09-14T16:08:57.478Z,64.21
2023-09-14T16:11:25.104Z,64.94
2023-09-14T16:13:56.076Z,65.56
2023-09-14T16:16:25.771Z,63.73
2023-09-14T16:19:00.032Z,65.34
2023-09-14T16:21:42.777Z,65.95
2023-09-14T16:24:13.735Z,65.19
2023-09-14T16:26:42.851Z,64.89
2023-09-14T16:29:09.962Z,67.52
2023-09-14T16:31:37.163Z,66.14
2023-09-14T16:34:08.192Z,65.72
2023-09-14T16:36:36.120Z,65.72
2023-09-14T16:39:09.130Z,67.69
2023-09-14T16:41:40.268Z,66.59
2023-09-14T16:44:10.991Z,67.23
2023-09-14T16:46:43.003Z,67.21
2023-09-14T16:49:30.040Z,68.21
2023-09-14T16:51:59.577Z,68.52
2023-09-14T16:54:34.366Z,68.33
2023-09-14T16:57:05.000Z,67.35
2023-09-14T16:59:32.160Z,67.75
2023-09-14T17:02:02.079Z,70.13
2023-09-14T17:04:31.219Z,70.13
2023-09-14T17:07:03.218Z,72.78
2023-09-14T17:09:40.072Z,71.01
2023-09-14T17:12:07.808Z,69.38
2023-09-14T17:14:36.698Z,70.04
2023-09-14T17:17:04.921Z,69.02
2023-09-14T17:19:35.197Z,69.76
2023-09-14T17:22:06.466Z,69.99
2023-09-14T17:24:48.847Z,70.18
2023-09-14T17:27:16.546Z,70.16
2023-09-14T17:29:43.741Z,70.85
2023-09-14T17:32:12.050Z,69.40
2023-09-14T17:34:39.069Z,71.01
2023-09-14T17:37:06.652Z,70.06
2023-09-14T17:39:36.352Z,70.40
2023-09-14T17:42:04.856Z,71.95
2023-09-14T17:44:32.114Z,71.95
2023-09-14T17:46:59.453Z,72.24
2023-09-14T17:49:27.856Z,71.28
2023-09-14T17:51:55.660Z,71.66
2023-09-14T17:54:22.907Z,71.66
2023-09-14T17:56:50.961Z,71.73
2023-09-14T17:59:18.101Z,71.49
2023-09-14T18:01:46.283Z,72.44
2023-09-14T18:04:13.633Z,72.44
2023-09-14T18:06:41.581Z,72.27
2023-09-14T18:09:08.879Z,72.66
2023-09-14T18:11:35.912Z,72.73
2023-09-14T18:14:02.922Z,73.78
2023-09-14T18:16:32.199Z,73.75
2023-09-14T18:19:01.096Z,74.01
2023-09-14T18:21:28.181Z,74.19
2023-09-14T18:23:55.246Z,74.19
2023-09-14T18:26:24.617Z,72.74
2023-09-14T18:28:51.861Z,72.55
2023-09-14T18:31:18.940Z,72.55
2023-09-14T18:33:46.045Z,72.24
2023-09-14T18:36:14.678Z,73.26
2023-09-14T18:38:41.742Z,73.27
2023-09-14T18:41:09.355Z,73.09
2023-09-14T18:43:37.384Z,73.97
2023-09-14T18:46:05.238Z,72.72
2023-09-14T18:48:32.387Z,74.29
2023-09-14T18:51:04.459Z,73.17
2023-09-14T18:53:32.694Z,73.26
2023-09-14T18:56:00.750Z,73.49
2023-09-14T18:59:21.436Z,73.49
2023-09-14T19:01:15.016Z,72.92
2023-09-14T19:03:43.114Z,73.85
2023-09-14T19:06:10.280Z,73.47
2023-09-14T19:08:38.975Z,74.07
2023-09-14T19:11:07.301Z,74.95
2023-09-14T19:13:35.383Z,74.94
2023-09-14T19:16:03.302Z,74.66
2023-09-14T19:18:30.411Z,76.43
2023-09-14T19:20:57.418Z,74.69
2023-09-14T19:23:24.525Z,76.93
2023-09-14T19:25:55.788Z,76.17
2023-09-14T19:28:25.367Z,76.36
2023-09-14T19:30:52.639Z,76.56
2023-09-14T19:33:21.152Z,76.65
2023-09-14T19:35:55.096Z,77.58
2023-09-14T19:38:23.199Z,76.98
2023-09-14T19:40:52.054Z,78.26
2023-09-14T19:43:19.208Z,77.34
2023-09-14T19:45:46.388Z,78.49
2023-09-14T19:48:13.542Z,78.91
2023-09-14T19:50:40.678Z,78.71
2023-09-14T19:53:07.720Z,79.79
2023-09-14T19:55:34.799Z,79.61
2023-09-14T19:58:01.973Z,78.21
2023-09-14T20:00:29.083Z,77.89
2023-09-14T20:02:56.406Z,80.38
2023-09-14T20:05:25.943Z,80.76
2023-09-14T20:07:53.258Z,78.42
2023-09-14T20:10:21.650Z,79.34
2023-09-14T20:12:49.605Z,79.09
2023-09-14T20:15:18.389Z,78.92
2023-09-14T20:17:48.198Z,79.47
2023-09-14T20:20:16.585Z,81.02
2023-09-14T20:22:43.583Z,79.29
2023-09-14T20:25:10.847Z,80.23
2023-09-14T20:27:38.118Z,80.47
2023-09-14T20:30:09.923Z,80.79
2023-09-14T20:32:37.770Z,80.49
2023-09-14T20:35:06.326Z,79.98
2023-09-14T20:37:41.558Z,79.71
2023-09-14T20:40:11.840Z,81.30
2023-09-14T20:42:40.092Z,81.45
2023-09-14T20:45:13.477Z,81.88
2023-09-14T20:47:44.378Z,82.29
2023-09-14T20:50:15.303Z,81.98
2023-09-14T20:52:47.443Z,82.57
2023-09-14T20:55:15.363Z,82.64
2023-09-14T20:57:43.119Z,83.07
2023-09-14T21:00:13.187Z,83.85
2023-09-14T21:02:40.422Z,81.53
2023-09-14T21:05:09.770Z,81.93
2023-09-14T21:07:41.831Z,81.88
2023-09-14T21:10:11.130Z,81.92
2023-09-14T21:12:39.383Z,81.79
2023-09-14T21:15:07.080Z,82.50
2023-09-14T21:17:37.063Z,84.08
2023-09-14T21:20:04.509Z,82.54
2023-09-14T21:22:31.697Z,83.30
2023-09-14T21:25:00.576Z,83.30
2023-09-14T21:27:27.829Z,83.93
2023-09-14T21:29:54.909Z,82.67
2023-09-14T21:32:21.965Z,83.27
2023-09-14T21:34:49.047Z,83.66
2023-09-14T21:37:18.679Z,84.50
2023-09-14T21:39:45.792Z,83.75
2023-09-14T21:42:14.540Z,84.49
2023-09-14T21:44:41.575Z,83.40
2023-09-14T21:47:08.597Z,83.16
2023-09-14T21:49:42.030Z,83.95
2023-09-14T21:52:11.847Z,84.54
2023-09-14T21:54:40.837Z,84.02
2023-09-14T21:57:09.712Z,84.09
2023-09-14T21:59:43.794Z,84.56
2023-09-14T22:02:11.263Z,84.44
2023-09-14T22:04:38.493Z,84.26
2023-09-14T22:07:05.562Z,84.66
2023-09-14T22:09:35.433Z,84.35
2023-09-14T22:12:04.697Z,86.08
2023-09-14T22:14:31.751Z,85.01
2023-09-14T22:16:58.854Z,84.37
2023-09-14T22:19:30.569Z,85.00
2023-09-14T22:21:58.780Z,84.73
2023-09-14T22:24:26.488Z,84.71
2023-09-14T22:26:53.898Z,85.11
2023-09-14T22:29:21.127Z,85.10
2023-09-14T22:31:48.463Z,84.69
2023-09-14T22:34:16.155Z,84.99
2023-09-14T22:36:43.762Z,84.54
2023-09-14T22:39:11.700Z,84.75
2023-09-14T22:41:40.458Z,84.64
2023-09-14T22:44:08.164Z,84.64
2023-09-14T22:46:35.715Z,85.07
2023-09-14T22:49:02.911Z,85.07
2023-09-14T22:51:30.178Z,84.75
2023-09-14T22:53:59.502Z,85.87
2023-09-14T22:56:29.424Z,85.61
2023-09-14T22:58:56.632Z,84.93
2023-09-14T23:01:27.828Z,85.29
2023-09-14T23:03:57.353Z,85.29
2023-09-14T23:06:25.007Z,85.72
2023-09-14T23:08:52.161Z,85.66
2023-09-14T23:11:25.312Z,85.66
2023-09-14T23:13:52.576Z,86.10
2023-09-14T23:16:26.319Z,85.05
2023-09-14T23:18:54.969Z,85.95
2023-09-14T23:21:22.185Z,86.29
2023-09-14T23:23:50.364Z,86.00
2023-09-14T23:26:17.381Z,86.28
2023-09-14T23:28:44.392Z,85.63
2023-09-14T23:31:11.446Z,86.43
2023-09-14T23:33:38.536Z,86.43
2023-09-14T23:36:14.469Z,86.88
2023-09-14T23:38:42.380Z,85.99
2023-09-14T23:41:14.236Z,87.08
2023-09-14T23:43:44.608Z,86.98
2023-09-14T23:46:15.571Z,87.23
2023-09-14T23:48:42.675Z,87.50
2023-09-14T23:51:09.818Z,86.32
2023-09-14T23:53:37.202Z,86.78
2023-09-14T23:56:06.730Z,86.78
2023-09-14T23:58:33.799Z,87.65
